Time;durP1;ratioP1;P1;durP2;ratioP2;P2;SDS_P1;SDS_P2;PMS_P1;PMS_P2;Temp;Humidity;BMP_temperature;BMP_pressure;BME280_temperature;BME280_humidity;BME280_pressure;Samples;Min_cycle;Max_cycle;Signal;HPM_P1;HPM_P2
2023/05/10 00:00:09;;;;;;;8.07;2.87;;;6.20;99.90;;;;;;4997211;28;20496;-87
2023/05/10 00:02:35;;;;;;;5.70;2.83;;;;;;;;;;5014484;28;20257;-87
2023/05/10 00:05:01;;;;;;;9.30;3.80;;;;;;;;;;5013007;28;20196;-87
2023/05/10 00:07:27;;;;;;;11.37;3.20;;;;;;;;;;5013254;28;20186;-87
2023/05/10 00:09:53;;;;;;;3.23;2.53;;;6.00;99.90;;;;;;5012727;28;20192;-87
2023/05/10 00:12:19;;;;;;;2.77;2.40;;;;;;;;;;5013507;28;20630;-87
2023/05/10 00:14:45;;;;;;;4.73;2.87;;;6.30;99.90;;;;;;5014213;28;20550;-86
2023/05/10 00:17:11;;;;;;;4.13;2.53;;;;;;;;;;5013804;28;20212;-87
2023/05/10 00:19:37;;;;;;;4.10;2.57;;;;;;;;;;5013422;28;20644;-87
2023/05/10 00:22:03;;;;;;;6.73;3.03;;;;;;;;;;5012834;28;20177;-87
2023/05/10 00:24:29;;;;;;;5.30;3.10;;;;;;;;;;5012916;28;20273;-87
2023/05/10 00:26:54;;;;;;;6.87;2.67;;;6.10;99.90;;;;;;5012514;28;20276;-87
2023/05/10 00:29:20;;;;;;;3.70;2.40;;;;;;;;;;5013786;28;20191;-87
2023/05/10 00:31:46;;;;;;;3.63;2.13;;;;;;;;;;5013846;28;20630;-85
2023/05/10 00:34:12;;;;;;;4.90;2.40;;;6.20;99.90;;;;;;5013712;28;20181;-87
2023/05/10 00:36:38;;;;;;;3.03;2.37;;;6.40;99.90;;;;;;5012322;28;20207;-87
2023/05/10 00:39:04;;;;;;;5.57;2.97;;;;;;;;;;5012024;28;20282;-87
2023/05/10 00:41:32;;;;;;;5.20;2.70;;;6.20;96.10;;;;;;5016272;28;20235;-86
2023/05/10 00:43:59;;;;;;;4.13;2.20;;;;;;;;;;5024603;28;20659;-88
2023/05/10 00:46:26;;;;;;;5.30;3.00;;;6.20;95.90;;;;;;5013022;28;20185;-87
2023/05/10 00:48:53;;;;;;;2.47;1.80;;;;;;;;;;5013199;28;20181;-88
2023/05/10 00:51:19;;;;;;;5.70;2.73;;;;;;;;;;5012091;28;20203;-88
2023/05/10 00:53:46;;;;;;;2.57;2.03;;;6.20;95.70;;;;;;4996299;28;20196;-87
2023/05/10 00:56:12;;;;;;;3.60;2.27;;;;;;;;;;5013633;28;20187;-87
2023/05/10 00:58:38;;;;;;;2.67;1.83;;;;;;;;;;5013505;28;20231;-87
2023/05/10 01:01:05;;;;;;;2.53;2.30;;;6.10;96.20;;;;;;5012094;28;20185;-87
2023/05/10 01:03:32;;;;;;;4.37;2.60;;;6.10;96.00;;;;;;5013646;28;20181;-87
2023/05/10 01:05:58;;;;;;;3.97;2.20;;;;;;;;;;5013742;28;20209;-87
2023/05/10 01:08:25;;;;;;;4.47;2.50;;;6.00;95.90;;;;;;5013647;28;20256;-87
2023/05/10 01:10:52;;;;;;;4.50;2.23;;;;;;;;;;5012559;28;20189;-86
2023/05/10 01:13:37;;;;;;;5.67;2.87;;;6.00;96.30;;;;;;5012544;28;20179;-87
2023/05/10 01:16:03;;;;;;;9.20;2.70;;;;;;;;;;5013426;28;20173;-88
2023/05/10 01:18:32;;;;;;;7.63;2.50;;;6.00;97.10;;;;;;5012188;28;20212;-87
2023/05/10 01:21:32;;;;;;;5.73;2.53;;;6.00;97.00;;;;;;5013174;28;20331;-87
2023/05/10 01:23:58;;;;;;;3.87;2.47;;;;;;;;;;5011999;28;20204;-87
2023/05/10 01:26:40;;;;;;;3.63;2.03;;;5.70;99.90;;;;;;5012244;28;20622;-87
2023/05/10 01:29:14;;;;;;;3.80;2.60;;;6.00;99.90;;;;;;5013218;28;20180;-87
2023/05/10 01:32:16;;;;;;;12.10;6.13;;;5.90;99.90;;;;;;5013705;28;20181;-87
2023/05/10 01:35:10;;;;;;;7.87;3.93;;;5.70;99.90;;;;;;5012315;28;20185;-87
2023/05/10 01:37:44;;;;;;;7.90;3.27;;;6.00;99.90;;;;;;5013301;28;20267;-87
2023/05/10 01:40:29;;;;;;;6.47;3.30;;;6.40;99.90;;;;;;5011948;28;20343;-89
2023/05/10 01:43:02;;;;;;;3.50;2.20;;;5.80;97.80;;;;;;5013161;28;20166;-90
2023/05/10 01:45:54;;;;;;;4.77;2.67;;;6.10;99.90;;;;;;5012495;28;20178;-86
2023/05/10 01:48:22;;;;;;;3.03;2.40;;;5.80;97.60;;;;;;5012650;28;20181;-88
2023/05/10 01:50:50;;;;;;;4.23;2.50;;;5.80;97.60;;;;;;5014464;28;20177;-86
2023/05/10 01:53:19;;;;;;;3.57;2.53;;;5.80;97.70;;;;;;5012443;28;20193;-88
2023/05/10 01:55:49;;;;;;;3.00;2.33;;;5.80;97.80;;;;;;5013350;28;20213;-89
2023/05/10 01:58:20;;;;;;;5.13;2.60;;;5.70;98.30;;;;;;5013361;28;20177;-88
2023/05/10 02:00:47;;;;;;;3.40;2.37;;;5.70;98.20;;;;;;5014435;28;20215;-89
2023/05/10 02:03:15;;;;;;;5.53;2.20;;;5.70;97.60;;;;;;5018421;28;20174;-89
2023/05/10 02:05:44;;;;;;;4.60;2.50;;;5.70;97.50;;;;;;5040356;28;20229;-88
2023/05/10 02:08:10;;;;;;;4.47;2.47;;;;;;;;;;5041102;28;20165;-88
2023/05/10 02:10:36;;;;;;;4.57;2.63;;;;;;;;;;5024664;28;20183;-88
2023/05/10 02:13:03;;;;;;;3.13;2.20;;;;;;;;;;5041169;28;20213;-87
2023/05/10 02:15:29;;;;;;;3.83;2.23;;;;;;;;;;5041178;28;20166;-88
2023/05/10 02:17:56;;;;;;;2.67;2.13;;;5.70;97.90;;;;;;5041033;28;20192;-88
2023/05/10 02:20:24;;;;;;;3.27;2.23;;;5.70;98.30;;;;;;5040405;28;20192;-88
2023/05/10 02:22:52;;;;;;;5.87;2.00;;;5.70;98.30;;;;;;5041185;28;20162;-89
2023/05/10 02:25:19;;;;;;;5.60;2.73;;;5.70;98.40;;;;;;5040307;28;20249;-89
2023/05/10 02:27:47;;;;;;;4.77;2.93;;;5.60;98.40;;;;;;5040673;28;20216;-89
2023/05/10 02:30:14;;;;;;;5.77;2.93;;;5.60;99.10;;;;;;5040817;28;20164;-88
2023/05/10 02:32:41;;;;;;;5.43;2.30;;;5.60;99.30;;;;;;5040403;28;20224;-88
2023/05/10 02:35:09;;;;;;;4.53;2.53;;;5.60;99.40;;;;;;5040140;28;20197;-86
2023/05/10 02:37:37;;;;;;;3.17;2.50;;;5.50;99.50;;;;;;5033163;28;20252;-89
2023/05/10 02:40:05;;;;;;;2.87;1.63;;;5.60;99.90;;;;;;5016458;28;20212;-87
2023/05/10 02:42:34;;;;;;;3.43;2.10;;;5.50;99.90;;;;;;5015377;28;20220;-89
2023/05/10 02:45:03;;;;;;;2.60;2.20;;;5.50;99.70;;;;;;5015336;28;20217;-89
2023/05/10 02:47:29;;;;;;;3.37;2.47;;;;;;;;;;5015356;28;20207;-89
2023/05/10 02:49:55;;;;;;;6.57;2.90;;;;;;;;;;5016665;28;20289;-91
2023/05/10 02:52:36;;;;;;;3.47;1.93;;;5.50;99.90;;;;;;5014774;28;20651;-89
2023/05/10 02:55:04;;;;;;;2.10;1.80;;;5.40;99.30;;;;;;5015749;28;20172;-89
2023/05/10 02:57:34;;;;;;;4.63;1.90;;;5.40;99.20;;;;;;5016041;28;20169;-88
2023/05/10 03:00:00;;;;;;;2.67;1.93;;;;;;;;;;5015685;28;20208;-89
2023/05/10 03:02:27;;;;;;;3.97;2.47;;;;;;;;;;5014446;28;20225;-90
2023/05/10 03:04:53;;;;;;;2.50;1.57;;;;;;;;;;5014624;28;20181;-91
2023/05/10 03:07:21;;;;;;;4.90;2.10;;;5.30;99.90;;;;;;5015416;28;20599;-91
2023/05/10 03:09:47;;;;;;;3.70;2.10;;;;;;;;;;5014507;28;20280;-88
2023/05/10 03:12:37;;;;;;;5.50;2.87;;;5.80;99.90;;;;;;5013307;28;20232;-89
2023/05/10 03:15:22;;;;;;;4.90;2.20;;;5.60;99.90;;;;;;5015662;28;20619;-89
2023/05/10 03:18:12;;;;;;;4.27;1.90;;;5.50;99.90;;;;;;5015309;28;20700;-88
2023/05/10 03:20:48;;;;;;;4.20;2.57;;;5.20;99.90;;;;;;5014138;28;20232;-82
2023/05/10 03:23:29;;;;;;;4.23;2.27;;;5.50;99.90;;;;;;5015601;28;20161;-86
2023/05/10 03:25:57;;;;;;;3.93;2.70;;;5.50;99.90;;;;;;5015408;28;20172;-86
2023/05/10 03:28:25;;;;;;;15.73;4.87;;;5.60;99.90;;;;;;5013818;28;20249;-87
2023/05/10 03:30:53;;;;;;;7.80;3.57;;;5.60;99.90;;;;;;5015547;28;20181;-87
2023/05/10 03:33:19;;;;;;;10.70;2.93;;;;;;;;;;5013838;28;20568;-87
2023/05/10 03:35:45;;;;;;;4.40;2.77;;;;;;;;;;5013862;28;20177;-87
2023/05/10 03:38:15;;;;;;;4.90;2.23;;;;;;;;;;5013338;28;20225;-87
2023/05/10 03:40:41;;;;;;;4.87;2.80;;;;;;;;;;5023349;28;20209;-88
2023/05/10 03:43:07;;;;;;;5.53;2.87;;;;;;;;;;5011710;28;20691;-84
2023/05/10 03:45:33;;;;;;;3.07;2.63;;;;;;;;;;5011607;28;20196;-86
2023/05/10 03:47:59;;;;;;;3.60;2.57;;;;;;;;;;5013374;28;20204;-84
2023/05/10 03:50:26;;;;;;;5.63;2.70;;;;;;;;;;5011854;28;20211;-85
2023/05/10 03:52:52;;;;;;;2.80;2.40;;;;;;;;;;5011165;28;20663;-86
2023/05/10 03:55:18;;;;;;;14.93;2.80;;;;;;;;;;5010382;28;20624;-85
2023/05/10 03:57:44;;;;;;;8.17;3.37;;;;;;;;;;5012178;28;20514;-86
2023/05/10 04:00:10;;;;;;;4.30;2.50;;;6.00;99.90;;;;;;5011902;28;20267;-85
2023/05/10 04:02:36;;;;;;;4.17;2.43;;;6.00;99.90;;;;;;5026545;28;20193;-85
2023/05/10 04:05:02;;;;;;;3.50;2.70;;;6.00;99.90;;;;;;5011099;28;20200;-86
2023/05/10 04:07:28;;;;;;;9.23;3.17;;;6.10;99.90;;;;;;5010574;28;20217;-84
2023/05/10 04:09:54;;;;;;;4.30;2.40;;;6.00;99.90;;;;;;5011606;28;20216;-85
2023/05/10 04:12:19;;;;;;;3.80;2.80;;;6.30;99.90;;;;;;4993839;28;20189;-84
2023/05/10 04:14:45;;;;;;;5.43;2.47;;;6.50;99.20;;;;;;5010655;28;20200;-85
2023/05/10 04:17:11;;;;;;;4.07;2.93;;;6.60;98.70;;;;;;5010259;28;20721;-85
2023/05/10 04:19:37;;;;;;;3.60;2.53;;;;;;;;;;4993178;28;20220;-86
2023/05/10 04:22:03;;;;;;;4.93;2.73;;;6.80;99.90;;;;;;5011671;28;20197;-86
2023/05/10 04:24:28;;;;;;;7.37;2.33;;;7.00;96.90;;;;;;4993212;28;20192;-86
2023/05/10 04:26:55;;;;;;;5.50;2.57;;;7.10;97.00;;;;;;5011719;28;20287;-87
2023/05/10 04:29:20;;;;;;;6.50;3.17;;;7.20;96.30;;;;;;5026341;28;20665;-87
2023/05/10 04:31:46;;;;;;;3.73;2.23;;;7.20;96.10;;;;;;5043468;28;20283;-86
2023/05/10 04:34:12;;;;;;;7.20;3.37;;;7.30;95.50;;;;;;5042985;28;20657;-85
2023/05/10 04:36:37;;;;;;;6.50;2.27;;;7.40;95.50;;;;;;5012179;28;20196;-86
2023/05/10 04:39:04;;;;;;;10.23;2.53;;;7.50;94.30;;;;;;5011853;28;20243;-87
2023/05/10 04:41:30;;;;;;;6.83;3.07;;;;;;;;;;5009040;28;20188;-88
2023/05/10 04:43:56;;;;;;;4.07;2.23;;;;;;;;;;5011135;28;20461;-88
2023/05/10 04:46:21;;;;;;;4.63;2.47;;;7.80;92.30;;;;;;5011932;28;20212;-88
2023/05/10 04:48:47;;;;;;;5.97;2.30;;;7.90;92.80;;;;;;5011121;28;20224;-88
2023/05/10 04:51:13;;;;;;;3.27;1.97;;;8.00;93.00;;;;;;5026233;28;20251;-88
2023/05/10 04:53:39;;;;;;;5.93;2.63;;;;;;;;;;4992850;28;20200;-87
2023/05/10 04:56:05;;;;;;;2.70;2.10;;;8.20;91.90;;;;;;5011891;28;20264;-87
2023/05/10 04:58:31;;;;;;;4.17;2.90;;;;;;;;;;5010969;28;20212;-89
2023/05/10 05:01:04;;;;;;;4.47;2.67;;;8.30;91.40;;;;;;5014036;28;20213;-88
2023/05/10 05:03:29;;;;;;;3.83;3.00;;;8.40;91.40;;;;;;5015498;28;20166;-87
2023/05/10 05:05:55;;;;;;;4.07;2.20;;;8.50;91.10;;;;;;5033470;28;20185;-84
2023/05/10 05:08:21;;;;;;;3.10;2.37;;;8.80;96.60;;;;;;5036132;28;20174;-87
2023/05/10 05:10:49;;;;;;;3.37;2.20;;;8.80;90.50;;;;;;5031730;28;20554;-89
2023/05/10 05:13:15;;;;;;;6.17;2.40;;;8.60;96.60;;;;;;5015749;28;20642;-87
2023/05/10 05:15:41;;;;;;;3.60;2.10;;;8.80;97.10;;;;;;5013096;28;20181;-87
2023/05/10 05:18:07;;;;;;;7.30;2.73;;;;;;;;;;5014987;28;20189;-90
2023/05/10 05:20:34;;;;;;;3.37;2.30;;;9.00;96.20;;;;;;5013577;28;20283;-89
2023/05/10 05:23:00;;;;;;;4.30;2.60;;;9.20;90.10;;;;;;5046707;28;20224;-88
2023/05/10 05:25:25;;;;;;;8.30;2.85;;;9.30;89.30;;;;;;5045761;28;20189;-89
2023/05/10 05:27:51;;;;;;;2.38;2.05;;;9.10;95.30;;;;;;5012895;28;20189;-89
2023/05/10 05:30:17;;;;;;;9.60;2.30;;;;;;;;;;5028978;28;20629;-89
2023/05/10 05:32:43;;;;;;;7.83;2.37;;;9.50;94.80;;;;;;5012008;28;20190;-89
2023/05/10 05:35:08;;;;;;;2.57;1.93;;;9.70;87.90;;;;;;5013415;28;20647;-89
2023/05/10 05:37:35;;;;;;;3.92;2.35;;;;;;;;;;5016311;28;20689;-89
2023/05/10 05:40:01;;;;;;;9.57;3.25;;;9.80;95.30;;;;;;5015832;28;20240;-88
2023/05/10 05:42:27;;;;;;;3.25;2.20;;;10.10;86.50;;;;;;5015721;28;20184;-88
2023/05/10 05:44:53;;;;;;;3.95;2.40;;;;;;;;;;5049379;28;20181;-89
2023/05/10 05:47:19;;;;;;;5.10;2.72;;;10.40;93.90;;;;;;5018956;28;20182;-89
2023/05/10 05:49:47;;;;;;;4.15;2.45;;;10.80;94.70;;;;;;5020117;28;20540;-89
2023/05/10 05:52:13;;;;;;;9.02;2.38;;;10.60;85.20;;;;;;5022752;28;20177;-88
2023/05/10 05:54:39;;;;;;;5.18;2.35;;;;;;;;;;5016820;28;20269;-89
2023/05/10 05:57:05;;;;;;;6.20;2.63;;;11.10;94.20;;;;;;5032803;28;20178;-88
2023/05/10 05:59:31;;;;;;;7.20;3.15;;;10.90;85.40;;;;;;5035525;28;20213;-85
2023/05/10 06:01:57;;;;;;;5.68;2.55;;;;;;;;;;5051452;28;20205;-87
2023/05/10 06:04:22;;;;;;;4.85;2.80;;;11.20;83.40;;;;;;5019848;28;20193;-88
2023/05/10 06:06:48;;;;;;;4.50;2.60;;;11.30;94.60;;;;;;5018612;28;20173;-87
2023/05/10 06:09:14;;;;;;;4.50;2.25;;;11.40;86.50;;;;;;5016838;28;20227;-87
2023/05/10 06:11:40;;;;;;;6.20;2.53;;;11.40;84.90;;;;;;5016481;28;20653;-87
2023/05/10 06:14:07;;;;;;;3.92;2.70;;;11.70;93.40;;;;;;5017222;28;20173;-87
2023/05/10 06:16:34;;;;;;;3.47;2.40;;;11.60;93.00;;;;;;5015353;28;20176;-87
2023/05/10 06:18:59;;;;;;;4.10;2.30;;;11.50;91.70;;;;;;5016647;28;20184;-87
2023/05/10 06:21:25;;;;;;;2.95;2.45;;;;;;;;;;5015910;28;20536;-87
2023/05/10 06:23:51;;;;;;;4.65;2.42;;;11.40;94.80;;;;;;5031387;28;20190;-87
2023/05/10 06:26:17;;;;;;;4.38;2.42;;;;;;;;;;5016116;28;20579;-87
2023/05/10 06:28:43;;;;;;;4.97;2.45;;;11.90;86.50;;;;;;5017353;28;20511;-87
2023/05/10 06:31:08;;;;;;;3.80;2.33;;;12.00;86.60;;;;;;5036870;28;20185;-87
2023/05/10 06:33:34;;;;;;;4.57;2.42;;;12.20;85.50;;;;;;5021240;28;20203;-88
2023/05/10 06:36:00;;;;;;;2.65;2.20;;;12.30;90.70;;;;;;5022090;28;20536;-86
2023/05/10 06:38:26;;;;;;;7.70;2.33;;;;;;;;;;5033743;28;20336;-87
2023/05/10 06:40:52;;;;;;;2.78;2.22;;;12.60;82.40;;;;;;5015829;28;20428;-86
2023/05/10 06:43:18;;;;;;;3.47;2.13;;;;;;;;;;5017257;28;20719;-86
2023/05/10 06:45:43;;;;;;;4.53;2.13;;;12.60;79.40;;;;;;5016858;28;20642;-87
2023/05/10 06:48:10;;;;;;;5.72;2.08;;;;;;;;;;5016128;28;20183;-86
2023/05/10 06:50:35;;;;;;;4.13;2.35;;;12.60;86.50;;;;;;5014343;28;20263;-86
2023/05/10 06:53:01;;;;;;;3.65;1.90;;;12.70;78.20;;;;;;5047772;28;20209;-89
2023/05/10 06:55:28;;;;;;;5.47;2.53;;;;;;;;;;5014442;28;20252;-87
2023/05/10 06:57:54;;;;;;;3.35;1.80;;;13.00;77.70;;;;;;5014134;28;20520;-87
2023/05/10 07:00:20;;;;;;;2.17;1.77;;;13.10;75.70;;;;;;5015443;28;20206;-86
2023/05/10 07:02:46;;;;;;;3.92;1.60;;;13.20;73.60;;;;;;5047264;28;20185;-88
2023/05/10 07:05:13;;;;;;;3.85;1.80;;;13.20;72.30;;;;;;5047624;28;20550;-88
2023/05/10 07:07:39;;;;;;;3.33;1.50;;;13.20;72.70;;;;;;5015088;28;20224;-85
2023/05/10 07:10:05;;;;;;;9.35;2.22;;;13.20;73.60;;;;;;5015624;28;20265;-88
2023/05/10 07:12:31;;;;;;;3.50;2.00;;;13.30;76.30;;;;;;5015703;28;20205;-85
2023/05/10 07:14:56;;;;;;;7.28;2.20;;;13.50;76.90;;;;;;5030832;28;20224;-87
2023/05/10 07:17:22;;;;;;;6.72;2.55;;;13.50;77.30;;;;;;5047201;28;20633;-87
2023/05/10 07:19:48;;;;;;;6.68;2.22;;;13.60;82.60;;;;;;5013734;28;20209;-85
2023/05/10 07:22:15;;;;;;;2.33;1.67;;;13.70;70.40;;;;;;5030387;28;20280;-85
2023/05/10 07:24:40;;;;;;;2.25;1.58;;;13.60;70.90;;;;;;5046704;28;20584;-87
2023/05/10 07:27:06;;;;;;;4.00;2.15;;;;;;;;;;5013839;28;20185;-86
2023/05/10 07:29:33;;;;;;;6.22;2.33;;;13.60;98.70;;;;;;5014979;28;20184;-85
2023/05/10 07:31:58;;;;;;;2.10;1.50;;;14.50;99.60;;;;;;5014784;28;20251;-85
2023/05/10 07:34:24;;;;;;;4.25;1.52;;;;;;;;;;4997510;28;20216;-85
2023/05/10 07:36:50;;;;;;;3.15;1.95;;;13.90;81.30;;;;;;5013274;28;20181;-85
2023/05/10 07:39:16;;;;;;;3.95;1.67;;;14.10;69.20;;;;;;5014876;28;20232;-85
2023/05/10 07:41:43;;;;;;;5.07;2.00;;;;;;;;;;5013800;28;20215;-84
2023/05/10 07:44:08;;;;;;;4.25;2.20;;;14.60;81.40;;;;;;5014832;28;20222;-84
2023/05/10 07:46:34;;;;;;;3.42;2.45;;;;;;;;;;5014856;28;20205;-84
2023/05/10 07:49:00;;;;;;;3.35;1.85;;;;;;;;;;5030149;28;20185;-84
2023/05/10 07:51:27;;;;;;;4.10;1.58;;;14.50;64.70;;;;;;5014878;28;20200;-84
2023/05/10 07:53:53;;;;;;;3.58;1.40;;;14.60;61.80;;;;;;5013134;28;20596;-85
2023/05/10 07:56:24;;;;;;;4.45;1.90;;;14.60;58.50;;;;;;5029861;28;20277;-84
2023/05/10 07:58:50;;;;;;;4.72;1.60;;;14.60;59.00;;;;;;5013980;28;20173;-87
2023/05/10 08:01:16;;;;;;;8.32;2.33;;;14.60;56.70;;;;;;5029979;28;20533;-85
2023/05/10 08:03:42;;;;;;;5.30;2.10;;;;;;;;;;5013442;28;20182;-86
2023/05/10 08:06:07;;;;;;;7.95;1.85;;;14.90;58.90;;;;;;5013160;28;20272;-85
2023/05/10 08:08:33;;;;;;;2.55;1.45;;;14.90;57.30;;;;;;5046418;28;20267;-85
2023/05/10 08:10:59;;;;;;;1.80;1.60;;;15.00;57.70;;;;;;5029918;28;20189;-86
2023/05/10 08:13:24;;;;;;;8.73;2.20;;;15.10;57.30;;;;;;5015287;28;20181;-85
2023/05/10 08:15:52;;;;;;;2.45;1.65;;;15.30;56.20;;;;;;5030006;28;20247;-85
2023/05/10 08:18:18;;;;;;;3.63;1.55;;;15.30;54.50;;;;;;5030155;28;20180;-85
2023/05/10 08:20:44;;;;;;;6.00;1.80;;;15.30;55.50;;;;;;5014168;28;20296;-85
2023/05/10 08:23:12;;;;;;;5.35;1.48;;;15.30;52.10;;;;;;5013773;28;20639;-84
2023/05/10 08:25:37;;;;;;;3.25;1.80;;;15.20;50.80;;;;;;5031291;28;20185;-85
2023/05/10 08:28:03;;;;;;;2.22;1.52;;;15.20;50.80;;;;;;5036410;28;20158;-86
2023/05/10 08:30:29;;;;;;;3.92;1.52;;;;;;;;;;5038129;28;20169;-86
2023/05/10 08:32:55;;;;;;;8.45;1.50;;;15.20;51.10;;;;;;5038068;28;20169;-85
2023/05/10 08:35:20;;;;;;;2.20;1.90;;;15.30;51.30;;;;;;5037944;28;20196;-85
2023/05/10 08:37:46;;;;;;;1.70;1.50;;;15.40;50.10;;;;;;5038063;28;20244;-86
2023/05/10 08:40:12;;;;;;;2.10;1.30;;;;;;;;;;5037423;28;20224;-86
2023/05/10 08:42:45;;;;;;;2.92;1.42;;;15.50;46.80;;;;;;5037739;28;20165;-86
2023/05/10 08:45:11;;;;;;;3.13;1.60;;;15.50;48.60;;;;;;5037796;28;20225;-84
2023/05/10 08:47:38;;;;;;;2.58;1.35;;;15.90;57.60;;;;;;5037483;28;20161;-84
2023/05/10 08:50:05;;;;;;;3.17;1.58;;;15.30;57.00;;;;;;5037560;28;20189;-85
2023/05/10 08:52:36;;;;;;;7.85;1.60;;;15.60;48.80;;;;;;5007350;28;20174;-85
2023/05/10 08:55:01;;;;;;;3.95;1.60;;;15.60;47.90;;;;;;5014904;28;20166;-85
2023/05/10 08:57:27;;;;;;;3.55;1.98;;;15.50;47.70;;;;;;5013891;28;20639;-85
2023/05/10 08:59:53;;;;;;;2.58;1.10;;;15.50;48.40;;;;;;5012073;28;20757;-85
2023/05/10 09:02:20;;;;;;;2.13;1.15;;;15.60;48.80;;;;;;5046970;28;20214;-85
2023/05/10 09:04:46;;;;;;;7.60;1.80;;;15.90;50.50;;;;;;5014344;28;20189;-85
2023/05/10 09:07:12;;;;;;;2.28;1.45;;;16.00;50.10;;;;;;5046775;28;20185;-85
2023/05/10 09:09:38;;;;;;;2.33;1.50;;;16.20;50.30;;;;;;5013780;28;20247;-85
2023/05/10 09:12:04;;;;;;;2.20;1.70;;;16.40;58.40;;;;;;5015988;28;20638;-85
2023/05/10 09:14:33;;;;;;;1.92;1.70;;;16.10;57.70;;;;;;5017144;28;20173;-84
2023/05/10 09:16:59;;;;;;;3.92;1.77;;;16.00;48.90;;;;;;5015952;28;20184;-84
2023/05/10 09:19:25;;;;;;;1.23;1.13;;;;;;;;;;5016047;28;20200;-86
2023/05/10 09:21:51;;;;;;;1.23;0.95;;;;;;;;;;5016236;28;20235;-85
2023/05/10 09:24:17;;;;;;;2.13;1.45;;;16.60;78.70;;;;;;5017508;28;20179;-86
2023/05/10 09:26:48;;;;;;;2.38;1.25;;;16.10;68.20;;;;;;5016529;28;20640;-85
2023/05/10 09:29:14;;;;;;;3.70;1.50;;;16.10;48.60;;;;;;5017052;28;20297;-85
2023/05/10 09:31:58;;;;;;;2.00;1.48;;;16.30;48.60;;;;;;5017470;28;20169;-85
2023/05/10 09:34:31;;;;;;;3.10;1.85;;;16.30;46.80;;;;;;5017099;28;20169;-85
2023/05/10 09:37:02;;;;;;;4.53;1.63;;;16.40;47.20;;;;;;5016880;28;20227;-85
2023/05/10 09:39:36;;;;;;;2.50;1.50;;;16.30;45.40;;;;;;5048921;28;20793;-84
2023/05/10 09:42:04;;;;;;;2.20;1.50;;;16.20;52.90;;;;;;5016279;28;20685;-85
2023/05/10 09:44:31;;;;;;;1.65;1.40;;;16.30;49.00;;;;;;5017665;28;20173;-85
2023/05/10 09:46:56;;;;;;;1.38;1.13;;;16.40;48.10;;;;;;5053091;28;20279;-87
2023/05/10 09:49:22;;;;;;;2.58;1.60;;;16.50;47.70;;;;;;5016663;28;20209;-86
2023/05/10 09:52:00;;;;;;;2.75;1.40;;;16.70;47.80;;;;;;5017449;28;20209;-86
2023/05/10 09:54:26;;;;;;;2.13;1.50;;;17.00;48.90;;;;;;5017577;28;20165;-87
2023/05/10 09:56:52;;;;;;;1.95;1.10;;;;;;;;;;5017197;28;20539;-87
2023/05/10 09:59:18;;;;;;;2.40;1.30;;;16.90;46.00;;;;;;5032434;28;20220;-88
2023/05/10 10:01:50;;;;;;;3.03;1.30;;;16.80;46.00;;;;;;5016192;28;20247;-85
2023/05/10 10:04:15;;;;;;;2.40;1.30;;;16.60;45.80;;;;;;5016647;28;20170;-85
2023/05/10 10:06:42;;;;;;;3.30;1.40;;;;;;;;;;5016774;28;20268;-88
2023/05/10 10:09:08;;;;;;;1.58;1.38;;;16.60;46.70;;;;;;5015121;28;20185;-88
2023/05/10 10:11:38;;;;;;;1.60;1.27;;;16.60;48.20;;;;;;5017346;28;20173;-87
2023/05/10 10:14:04;;;;;;;1.88;1.20;;;16.50;46.70;;;;;;5050698;28;20536;-86
2023/05/10 10:16:31;;;;;;;2.20;1.52;;;16.50;47.60;;;;;;5016783;28;20174;-87
2023/05/10 10:18:57;;;;;;;3.25;1.25;;;16.80;49.70;;;;;;5048395;28;20590;-87
2023/05/10 10:21:24;;;;;;;2.10;1.50;;;17.10;64.20;;;;;;5014688;28;20236;-87
2023/05/10 10:23:51;;;;;;;1.73;1.60;;;17.20;49.50;;;;;;5014965;28;20209;-86
2023/05/10 10:26:18;;;;;;;3.80;1.80;;;17.60;74.10;;;;;;5016226;28;20181;-88
2023/05/10 10:29:04;;;;;;;3.35;1.58;;;17.30;46.40;;;;;;5048010;28;20192;-86
2023/05/10 10:31:50;;;;;;;2.65;1.20;;;17.20;47.20;;;;;;5016092;28;20162;-85
2023/05/10 10:34:29;;;;;;;2.45;1.50;;;17.20;47.60;;;;;;5015601;28;20215;-85
2023/05/10 10:36:57;;;;;;;2.65;1.50;;;17.30;47.10;;;;;;5047742;28;20223;-85
2023/05/10 10:39:25;;;;;;;2.13;1.33;;;17.40;48.70;;;;;;5047517;28;20247;-85
2023/05/10 10:41:55;;;;;;;1.83;1.30;;;17.50;46.30;;;;;;5016146;28;20193;-87
2023/05/10 10:44:30;;;;;;;2.85;1.60;;;17.60;47.90;;;;;;5047541;28;20177;-87
2023/05/10 10:47:11;;;;;;;2.40;1.70;;;17.50;46.00;;;;;;5047837;28;20234;-86
2023/05/10 10:49:43;;;;;;;1.33;1.23;;;17.20;46.50;;;;;;5047669;28;20189;-87
2023/05/10 10:52:32;;;;;;;2.55;1.30;;;17.40;46.10;;;;;;5015759;28;20209;-89
2023/05/10 10:55:03;;;;;;;2.35;1.60;;;17.50;46.50;;;;;;5015822;28;20165;-86
2023/05/10 10:57:41;;;;;;;1.70;1.45;;;17.70;46.10;;;;;;5015659;28;20243;-89
2023/05/10 11:00:27;;;;;;;2.90;1.48;;;17.80;46.20;;;;;;5015860;28;20240;-87
2023/05/10 11:02:57;;;;;;;3.72;1.42;;;17.80;43.00;;;;;;5015803;28;20166;-85
2023/05/10 11:05:40;;;;;;;1.83;1.50;;;17.50;45.80;;;;;;5047173;28;20193;-85
2023/05/10 11:08:10;;;;;;;4.20;1.73;;;17.50;43.50;;;;;;5015871;28;20179;-86
2023/05/10 11:10:36;;;;;;;1.95;1.52;;;17.50;45.60;;;;;;5047213;28;20227;-85
2023/05/10 11:13:05;;;;;;;1.70;1.30;;;17.60;46.30;;;;;;5014332;28;20201;-86
2023/05/10 11:15:36;;;;;;;1.52;1.00;;;17.60;44.80;;;;;;5047039;28;20627;-87
2023/05/10 11:18:19;;;;;;;3.75;1.55;;;17.70;45.40;;;;;;5047298;28;20282;-85
2023/05/10 11:20:51;;;;;;;1.83;1.38;;;17.90;44.10;;;;;;5014273;28;20209;-85
2023/05/10 11:23:17;;;;;;;2.20;1.35;;;18.00;43.40;;;;;;5015781;28;20619;-86
2023/05/10 11:25:44;;;;;;;2.75;1.30;;;18.00;43.50;;;;;;5047287;28;20185;-86
2023/05/10 11:28:11;;;;;;;3.00;1.50;;;17.80;42.60;;;;;;5015068;28;20193;-85
2023/05/10 11:30:39;;;;;;;1.50;1.38;;;17.40;43.40;;;;;;5014589;28;20184;-85
2023/05/10 11:33:06;;;;;;;1.85;1.35;;;17.20;43.50;;;;;;5014481;28;20181;-86
2023/05/10 11:35:38;;;;;;;1.90;1.30;;;17.40;44.40;;;;;;5013238;28;20181;-85
2023/05/10 11:38:06;;;;;;;2.08;1.48;;;17.40;43.10;;;;;;5046718;28;20587;-87
2023/05/10 11:40:31;;;;;;;5.07;1.33;;;17.50;43.60;;;;;;5013776;28;20306;-86
2023/05/10 11:42:57;;;;;;;2.08;1.23;;;17.70;41.90;;;;;;5047487;28;20654;-86
2023/05/10 11:45:24;;;;;;;1.85;1.42;;;17.80;43.00;;;;;;5015671;28;20205;-87
2023/05/10 11:47:50;;;;;;;2.25;1.35;;;18.10;41.50;;;;;;5031670;28;20552;-85
2023/05/10 11:50:17;;;;;;;2.25;1.40;;;18.20;42.10;;;;;;5014507;28;20202;-85
2023/05/10 11:52:42;;;;;;;1.20;1.00;;;18.30;41.90;;;;;;5030493;28;20185;-86
2023/05/10 11:55:08;;;;;;;1.45;1.23;;;18.50;41.20;;;;;;5013872;28;20223;-87
2023/05/10 11:57:34;;;;;;;1.35;1.25;;;;;;;;;;5014465;28;20564;-88
2023/05/10 12:00:00;;;;;;;1.85;1.40;;;18.70;40.60;;;;;;5013827;28;20279;-89
2023/05/10 12:02:26;;;;;;;1.27;1.13;;;18.60;40.20;;;;;;4997047;28;20630;-87
2023/05/10 12:04:51;;;;;;;1.58;1.33;;;18.70;41.30;;;;;;4997236;28;20268;-87
2023/05/10 12:07:17;;;;;;;2.00;1.27;;;18.70;39.70;;;;;;5013903;28;20185;-87
2023/05/10 12:09:44;;;;;;;3.13;1.05;;;18.70;40.80;;;;;;5029741;28;20178;-85
2023/05/10 12:12:20;;;;;;;2.10;1.50;;;18.70;40.60;;;;;;5015214;28;20192;-88
2023/05/10 12:14:50;;;;;;;1.60;1.00;;;18.90;42.60;;;;;;5014886;28;20622;-86
2023/05/10 12:17:17;;;;;;;1.75;1.42;;;18.90;40.80;;;;;;5015144;28;20619;-87
2023/05/10 12:19:43;;;;;;;1.52;1.40;;;19.00;42.90;;;;;;5046087;28;20209;-86
2023/05/10 12:22:09;;;;;;;4.82;1.15;;;19.20;40.60;;;;;;5014236;28;20173;-86
2023/05/10 12:24:37;;;;;;;1.35;1.25;;;19.20;40.30;;;;;;5045140;28;20208;-86
2023/05/10 12:27:08;;;;;;;2.63;1.38;;;19.30;41.50;;;;;;5014011;28;20645;-86
2023/05/10 12:29:34;;;;;;;1.13;1.00;;;19.30;40.10;;;;;;5013456;28;20189;-84
2023/05/10 12:32:00;;;;;;;2.17;1.42;;;19.00;40.40;;;;;;5011829;28;20551;-85
2023/05/10 12:34:33;;;;;;;2.35;1.70;;;18.70;39.60;;;;;;5027978;28;20232;-86
2023/05/10 12:36:59;;;;;;;2.08;1.20;;;18.60;40.20;;;;;;5014717;28;20180;-86
2023/05/10 12:39:25;;;;;;;1.65;1.33;;;18.50;39.50;;;;;;5013144;28;20224;-85
2023/05/10 12:41:52;;;;;;;1.55;1.27;;;18.30;40.30;;;;;;5013595;28;20173;-86
2023/05/10 12:44:18;;;;;;;1.42;1.33;;;18.40;40.50;;;;;;5044888;28;20177;-86
2023/05/10 12:46:44;;;;;;;2.08;1.25;;;18.30;40.40;;;;;;5013335;28;20173;-85
2023/05/10 12:49:10;;;;;;;1.30;1.20;;;18.40;40.20;;;;;;5012685;28;20184;-86
2023/05/10 12:51:36;;;;;;;1.23;1.13;;;18.50;40.70;;;;;;5013552;28;20173;-85
2023/05/10 12:54:02;;;;;;;4.35;1.50;;;18.50;40.60;;;;;;5029036;28;20591;-85
2023/05/10 12:56:28;;;;;;;1.40;1.27;;;18.60;40.70;;;;;;5011972;28;20184;-85
2023/05/10 12:58:53;;;;;;;1.13;1.02;;;18.90;40.60;;;;;;5012496;28;20180;-87
2023/05/10 13:01:19;;;;;;;4.30;1.27;;;19.00;41.40;;;;;;5046175;28;20205;-85
2023/05/10 13:03:45;;;;;;;1.92;1.08;;;19.10;40.10;;;;;;5012143;28;20430;-82
2023/05/10 13:06:11;;;;;;;2.53;1.27;;;18.80;39.60;;;;;;5011965;28;20181;-84
2023/05/10 13:08:36;;;;;;;1.80;1.30;;;18.70;38.40;;;;;;5013070;28;20180;-83
2023/05/10 13:11:03;;;;;;;1.30;1.20;;;18.80;41.60;;;;;;5045307;28;20208;-83
2023/05/10 13:13:28;;;;;;;1.77;1.10;;;19.00;41.30;;;;;;5011723;28;20263;-85
2023/05/10 13:15:54;;;;;;;4.95;1.42;;;18.90;40.00;;;;;;5013013;28;20260;-85